sensor_id;sensor_type;location;lat;lon;timestamp;temperature;humidity
59301;DHT22;45073;52.740;6.784;2023-08-08T00:00:37;13.10;99.90
59301;DHT22;45073;52.740;6.784;2023-08-08T00:03:02;13.20;99.90
59301;DHT22;45073;52.740;6.784;2023-08-08T00:05:28;13.20;99.90
59301;DHT22;45073;52.740;6.784;2023-08-08T00:07:53;13.10;99.90
59301;DHT22;45073;52.740;6.784;2023-08-08T00:10:19;13.10;99.90
59301;DHT22;45073;52.740;6.784;2023-08-08T00:12:45;13.10;99.90
59301;DHT22;45073;52.740;6.784;2023-08-08T00:15:10;13.10;99.90
59301;DHT22;45073;52.740;6.784;2023-08-08T00:17:36;13.00;99.90
59301;DHT22;45073;52.740;6.784;2023-08-08T00:20:02;13.10;99.90
59301;DHT22;45073;52.740;6.784;2023-08-08T00:22:29;13.00;99.90
59301;DHT22;45073;52.740;6.784;2023-08-08T00:24:54;13.10;99.90
59301;DHT22;45073;52.740;6.784;2023-08-08T00:27:20;13.10;99.90
59301;DHT22;45073;52.740;6.784;2023-08-08T00:29:46;13.20;99.90
59301;DHT22;45073;52.740;6.784;2023-08-08T00:32:11;13.10;99.90
59301;DHT22;45073;52.740;6.784;2023-08-08T00:34:37;13.10;99.90
59301;DHT22;45073;52.740;6.784;2023-08-08T00:37:03;13.10;99.90
59301;DHT22;45073;52.740;6.784;2023-08-08T00:39:28;13.10;99.90
59301;DHT22;45073;52.740;6.784;2023-08-08T00:41:54;13.20;99.90
59301;DHT22;45073;52.740;6.784;2023-08-08T00:44:19;13.20;99.90
59301;DHT22;45073;52.740;6.784;2023-08-08T00:46:45;13.20;99.90
59301;DHT22;45073;52.740;6.784;2023-08-08T00:49:11;13.20;99.90
59301;DHT22;45073;52.740;6.784;2023-08-08T00:51:37;13.20;99.90
59301;DHT22;45073;52.740;6.784;2023-08-08T00:54:04;13.20;99.90
59301;DHT22;45073;52.740;6.784;2023-08-08T00:56:30;13.30;99.90
59301;DHT22;45073;52.740;6.784;2023-08-08T00:58:57;13.30;99.90
59301;DHT22;45073;52.740;6.784;2023-08-08T01:01:22;13.30;99.90
59301;DHT22;45073;52.740;6.784;2023-08-08T01:03:48;13.30;99.90
59301;DHT22;45073;52.740;6.784;2023-08-08T01:09:13;13.40;99.90
59301;DHT22;45073;52.740;6.784;2023-08-08T01:11:41;13.50;99.90
59301;DHT22;45073;52.740;6.784;2023-08-08T01:14:08;13.50;99.90
59301;DHT22;45073;52.740;6.784;2023-08-08T01:16:34;13.50;99.90
59301;DHT22;45073;52.740;6.784;2023-08-08T01:19:00;13.50;99.90
59301;DHT22;45073;52.740;6.784;2023-08-08T01:21:28;13.60;99.90
59301;DHT22;45073;52.740;6.784;2023-08-08T01:26:41;13.60;99.90
59301;DHT22;45073;52.740;6.784;2023-08-08T01:29:07;13.60;99.90
59301;DHT22;45073;52.740;6.784;2023-08-08T01:31:32;13.60;99.90
59301;DHT22;45073;52.740;6.784;2023-08-08T01:33:58;13.60;99.90
59301;DHT22;45073;52.740;6.784;2023-08-08T01:36:52;13.70;99.90
59301;DHT22;45073;52.740;6.784;2023-08-08T01:39:26;13.70;99.90
59301;DHT22;45073;52.740;6.784;2023-08-08T01:41:56;13.70;99.90
59301;DHT22;45073;52.740;6.784;2023-08-08T01:44:24;13.70;99.90
59301;DHT22;45073;52.740;6.784;2023-08-08T01:46:51;13.80;99.90
59301;DHT22;45073;52.740;6.784;2023-08-08T01:49:17;13.80;99.90
59301;DHT22;45073;52.740;6.784;2023-08-08T01:51:43;13.80;99.90
59301;DHT22;45073;52.740;6.784;2023-08-08T01:54:08;13.90;99.90
59301;DHT22;45073;52.740;6.784;2023-08-08T01:56:34;13.90;99.90
59301;DHT22;45073;52.740;6.784;2023-08-08T01:59:00;13.90;99.90
59301;DHT22;45073;52.740;6.784;2023-08-08T02:01:25;13.90;99.90
59301;DHT22;45073;52.740;6.784;2023-08-08T02:03:51;13.90;99.90
59301;DHT22;45073;52.740;6.784;2023-08-08T02:06:16;13.90;99.90
59301;DHT22;45073;52.740;6.784;2023-08-08T02:08:42;13.90;99.90
59301;DHT22;45073;52.740;6.784;2023-08-08T02:11:08;13.90;99.90
59301;DHT22;45073;52.740;6.784;2023-08-08T02:13:33;13.90;99.90
59301;DHT22;45073;52.740;6.784;2023-08-08T02:15:59;14.00;99.90
59301;DHT22;45073;52.740;6.784;2023-08-08T02:18:24;14.00;99.90
59301;DHT22;45073;52.740;6.784;2023-08-08T02:20:50;14.00;99.90
59301;DHT22;45073;52.740;6.784;2023-08-08T02:23:16;14.00;99.90
59301;DHT22;45073;52.740;6.784;2023-08-08T02:25:41;14.00;99.90
59301;DHT22;45073;52.740;6.784;2023-08-08T02:28:07;14.10;99.90
59301;DHT22;45073;52.740;6.784;2023-08-08T02:30:32;14.10;99.90
59301;DHT22;45073;52.740;6.784;2023-08-08T02:32:58;14.10;99.90
59301;DHT22;45073;52.740;6.784;2023-08-08T02:35:23;14.00;99.90
59301;DHT22;45073;52.740;6.784;2023-08-08T02:37:49;14.10;99.90
59301;DHT22;45073;52.740;6.784;2023-08-08T02:40:15;14.10;99.90
59301;DHT22;45073;52.740;6.784;2023-08-08T02:42:40;14.20;99.90
59301;DHT22;45073;52.740;6.784;2023-08-08T02:45:06;14.20;99.90
59301;DHT22;45073;52.740;6.784;2023-08-08T02:47:32;14.10;99.90
59301;DHT22;45073;52.740;6.784;2023-08-08T02:49:57;14.10;99.90
59301;DHT22;45073;52.740;6.784;2023-08-08T02:52:23;14.10;99.90
59301;DHT22;45073;52.740;6.784;2023-08-08T02:54:49;14.20;99.90
59301;DHT22;45073;52.740;6.784;2023-08-08T02:57:14;14.20;99.90
59301;DHT22;45073;52.740;6.784;2023-08-08T02:59:40;14.20;99.90
59301;DHT22;45073;52.740;6.784;2023-08-08T03:02:06;14.20;99.90
59301;DHT22;45073;52.740;6.784;2023-08-08T03:04:31;14.20;99.90
59301;DHT22;45073;52.740;6.784;2023-08-08T03:06:57;14.20;99.90
59301;DHT22;45073;52.740;6.784;2023-08-08T03:09:22;14.20;99.90
59301;DHT22;45073;52.740;6.784;2023-08-08T03:11:48;14.20;99.90
59301;DHT22;45073;52.740;6.784;2023-08-08T03:14:13;14.30;99.90
59301;DHT22;45073;52.740;6.784;2023-08-08T03:16:39;14.20;99.90
59301;DHT22;45073;52.740;6.784;2023-08-08T03:19:05;14.10;99.90
59301;DHT22;45073;52.740;6.784;2023-08-08T03:21:31;14.20;99.90
59301;DHT22;45073;52.740;6.784;2023-08-08T03:23:57;14.10;99.90
59301;DHT22;45073;52.740;6.784;2023-08-08T03:26:22;14.10;99.90
59301;DHT22;45073;52.740;6.784;2023-08-08T03:28:48;14.10;99.90
59301;DHT22;45073;52.740;6.784;2023-08-08T03:31:19;14.10;99.90
59301;DHT22;45073;52.740;6.784;2023-08-08T03:33:45;14.10;99.90
59301;DHT22;45073;52.740;6.784;2023-08-08T03:36:10;14.10;99.90
59301;DHT22;45073;52.740;6.784;2023-08-08T03:38:36;14.10;99.90
59301;DHT22;45073;52.740;6.784;2023-08-08T03:41:03;14.10;99.90
59301;DHT22;45073;52.740;6.784;2023-08-08T03:43:29;14.10;99.90
59301;DHT22;45073;52.740;6.784;2023-08-08T03:45:54;14.10;99.90
59301;DHT22;45073;52.740;6.784;2023-08-08T03:48:20;14.10;99.90
59301;DHT22;45073;52.740;6.784;2023-08-08T03:50:46;14.00;99.90
59301;DHT22;45073;52.740;6.784;2023-08-08T03:53:12;14.00;99.90
59301;DHT22;45073;52.740;6.784;2023-08-08T03:55:38;14.00;99.90
59301;DHT22;45073;52.740;6.784;2023-08-08T03:58:04;14.00;99.90
59301;DHT22;45073;52.740;6.784;2023-08-08T04:00:31;13.90;99.90
59301;DHT22;45073;52.740;6.784;2023-08-08T04:02:56;13.90;99.90
59301;DHT22;45073;52.740;6.784;2023-08-08T04:05:22;13.90;99.90
59301;DHT22;45073;52.740;6.784;2023-08-08T04:07:47;13.90;99.90
59301;DHT22;45073;52.740;6.784;2023-08-08T04:10:13;13.80;99.90
59301;DHT22;45073;52.740;6.784;2023-08-08T04:12:38;13.80;99.90
59301;DHT22;45073;52.740;6.784;2023-08-08T04:15:04;13.70;99.90
59301;DHT22;45073;52.740;6.784;2023-08-08T04:17:30;13.70;99.90
59301;DHT22;45073;52.740;6.784;2023-08-08T04:19:56;13.70;99.90
59301;DHT22;45073;52.740;6.784;2023-08-08T04:22:22;13.70;99.90
59301;DHT22;45073;52.740;6.784;2023-08-08T04:24:47;13.60;99.90
59301;DHT22;45073;52.740;6.784;2023-08-08T04:27:13;13.60;99.90
59301;DHT22;45073;52.740;6.784;2023-08-08T04:29:39;13.50;99.90
59301;DHT22;45073;52.740;6.784;2023-08-08T04:32:05;13.60;99.90
59301;DHT22;45073;52.740;6.784;2023-08-08T04:34:30;13.50;99.90
59301;DHT22;45073;52.740;6.784;2023-08-08T04:36:56;13.50;99.90
59301;DHT22;45073;52.740;6.784;2023-08-08T04:39:21;13.40;99.90
59301;DHT22;45073;52.740;6.784;2023-08-08T04:41:47;13.40;99.90
59301;DHT22;45073;52.740;6.784;2023-08-08T04:44:12;13.40;99.90
59301;DHT22;45073;52.740;6.784;2023-08-08T04:46:38;13.40;99.90
59301;DHT22;45073;52.740;6.784;2023-08-08T04:49:04;13.40;99.90
59301;DHT22;45073;52.740;6.784;2023-08-08T04:51:29;13.40;99.90
59301;DHT22;45073;52.740;6.784;2023-08-08T04:53:55;13.40;99.90
59301;DHT22;45073;52.740;6.784;2023-08-08T04:56:20;13.40;99.90
59301;DHT22;45073;52.740;6.784;2023-08-08T04:58:46;13.50;99.90
59301;DHT22;45073;52.740;6.784;2023-08-08T05:01:12;13.40;99.90
59301;DHT22;45073;52.740;6.784;2023-08-08T05:03:40;13.40;99.90
59301;DHT22;45073;52.740;6.784;2023-08-08T05:06:05;13.40;99.90
59301;DHT22;45073;52.740;6.784;2023-08-08T05:08:31;13.50;99.90
59301;DHT22;45073;52.740;6.784;2023-08-08T05:10:57;13.50;99.90
59301;DHT22;45073;52.740;6.784;2023-08-08T05:13:22;13.60;99.90
59301;DHT22;45073;52.740;6.784;2023-08-08T05:15:48;13.60;99.90
59301;DHT22;45073;52.740;6.784;2023-08-08T05:18:13;13.60;99.90
59301;DHT22;45073;52.740;6.784;2023-08-08T05:20:39;13.70;99.90
59301;DHT22;45073;52.740;6.784;2023-08-08T05:23:05;13.80;99.90
59301;DHT22;45073;52.740;6.784;2023-08-08T05:25:30;13.90;99.90
59301;DHT22;45073;52.740;6.784;2023-08-08T05:27:56;14.00;99.90
59301;DHT22;45073;52.740;6.784;2023-08-08T05:30:22;14.10;99.90
59301;DHT22;45073;52.740;6.784;2023-08-08T05:32:47;14.10;99.90
59301;DHT22;45073;52.740;6.784;2023-08-08T05:35:13;14.20;99.90
59301;DHT22;45073;52.740;6.784;2023-08-08T05:37:39;14.30;99.90
59301;DHT22;45073;52.740;6.784;2023-08-08T05:40:05;14.30;99.90
59301;DHT22;45073;52.740;6.784;2023-08-08T05:42:32;14.40;99.90
59301;DHT22;45073;52.740;6.784;2023-08-08T05:44:57;14.40;99.90
59301;DHT22;45073;52.740;6.784;2023-08-08T05:47:23;14.40;99.90
59301;DHT22;45073;52.740;6.784;2023-08-08T05:49:49;14.50;99.90
59301;DHT22;45073;52.740;6.784;2023-08-08T05:52:14;14.50;99.90
59301;DHT22;45073;52.740;6.784;2023-08-08T05:54:40;14.60;99.90
59301;DHT22;45073;52.740;6.784;2023-08-08T05:57:06;14.60;99.90
59301;DHT22;45073;52.740;6.784;2023-08-08T05:59:32;14.60;99.90
59301;DHT22;45073;52.740;6.784;2023-08-08T06:01:57;14.60;99.90
59301;DHT22;45073;52.740;6.784;2023-08-08T06:04:24;14.70;99.90
59301;DHT22;45073;52.740;6.784;2023-08-08T06:06:50;14.60;99.90
59301;DHT22;45073;52.740;6.784;2023-08-08T06:09:16;14.70;99.90
59301;DHT22;45073;52.740;6.784;2023-08-08T06:11:42;14.60;99.90
59301;DHT22;45073;52.740;6.784;2023-08-08T06:14:08;14.70;99.90
59301;DHT22;45073;52.740;6.784;2023-08-08T06:16:33;14.70;99.90
59301;DHT22;45073;52.740;6.784;2023-08-08T06:18:59;14.60;99.90
59301;DHT22;45073;52.740;6.784;2023-08-08T06:21:25;14.60;99.90
59301;DHT22;45073;52.740;6.784;2023-08-08T06:23:50;14.70;99.90
59301;DHT22;45073;52.740;6.784;2023-08-08T06:26:18;14.80;99.90
59301;DHT22;45073;52.740;6.784;2023-08-08T06:28:46;14.90;99.90
59301;DHT22;45073;52.740;6.784;2023-08-08T06:31:13;14.90;99.90
59301;DHT22;45073;52.740;6.784;2023-08-08T06:33:38;15.00;99.90
59301;DHT22;45073;52.740;6.784;2023-08-08T06:36:04;15.00;99.90
59301;DHT22;45073;52.740;6.784;2023-08-08T06:38:30;15.10;99.90
59301;DHT22;45073;52.740;6.784;2023-08-08T06:41:02;15.10;99.90
59301;DHT22;45073;52.740;6.784;2023-08-08T06:43:28;15.20;99.90
59301;DHT22;45073;52.740;6.784;2023-08-08T06:45:54;15.20;99.90
59301;DHT22;45073;52.740;6.784;2023-08-08T06:48:20;15.30;99.90
59301;DHT22;45073;52.740;6.784;2023-08-08T06:50:46;15.30;99.90
59301;DHT22;45073;52.740;6.784;2023-08-08T06:53:11;15.40;99.90
59301;DHT22;45073;52.740;6.784;2023-08-08T06:55:37;15.50;99.90
59301;DHT22;45073;52.740;6.784;2023-08-08T06:58:03;15.60;99.90
59301;DHT22;45073;52.740;6.784;2023-08-08T07:00:29;15.60;99.90
59301;DHT22;45073;52.740;6.784;2023-08-08T07:02:55;15.60;99.90
59301;DHT22;45073;52.740;6.784;2023-08-08T07:05:21;15.70;99.90
59301;DHT22;45073;52.740;6.784;2023-08-08T07:07:49;15.80;99.90
59301;DHT22;45073;52.740;6.784;2023-08-08T07:10:15;15.80;99.90
59301;DHT22;45073;52.740;6.784;2023-08-08T07:12:41;15.90;99.90
59301;DHT22;45073;52.740;6.784;2023-08-08T07:15:07;16.00;99.90
59301;DHT22;45073;52.740;6.784;2023-08-08T07:17:33;16.10;99.90
59301;DHT22;45073;52.740;6.784;2023-08-08T07:19:59;16.20;99.90
59301;DHT22;45073;52.740;6.784;2023-08-08T07:22:25;16.20;99.90
59301;DHT22;45073;52.740;6.784;2023-08-08T07:24:51;16.20;99.90
59301;DHT22;45073;52.740;6.784;2023-08-08T07:27:19;16.20;99.90
59301;DHT22;45073;52.740;6.784;2023-08-08T07:29:45;16.30;99.90
59301;DHT22;45073;52.740;6.784;2023-08-08T07:32:17;16.40;99.90
59301;DHT22;45073;52.740;6.784;2023-08-08T07:34:42;16.50;99.90
59301;DHT22;45073;52.740;6.784;2023-08-08T07:37:08;16.50;99.90
59301;DHT22;45073;52.740;6.784;2023-08-08T07:39:34;16.40;99.90
59301;DHT22;45073;52.740;6.784;2023-08-08T07:41:59;16.50;99.90
59301;DHT22;45073;52.740;6.784;2023-08-08T07:44:25;16.60;99.90
59301;DHT22;45073;52.740;6.784;2023-08-08T07:46:50;16.70;99.90
59301;DHT22;45073;52.740;6.784;2023-08-08T07:49:16;16.70;99.90
59301;DHT22;45073;52.740;6.784;2023-08-08T07:51:42;16.80;99.90
59301;DHT22;45073;52.740;6.784;2023-08-08T07:54:07;16.90;99.90
59301;DHT22;45073;52.740;6.784;2023-08-08T07:56:35;16.90;99.90
59301;DHT22;45073;52.740;6.784;2023-08-08T07:59:00;16.90;99.90
59301;DHT22;45073;52.740;6.784;2023-08-08T08:01:27;16.90;99.90
59301;DHT22;45073;52.740;6.784;2023-08-08T08:03:53;16.90;99.90
59301;DHT22;45073;52.740;6.784;2023-08-08T08:06:18;17.00;99.90
59301;DHT22;45073;52.740;6.784;2023-08-08T08:08:44;17.10;99.90
59301;DHT22;45073;52.740;6.784;2023-08-08T08:11:10;17.20;99.90
59301;DHT22;45073;52.740;6.784;2023-08-08T08:13:36;17.40;99.90
59301;DHT22;45073;52.740;6.784;2023-08-08T08:16:02;17.40;99.90
59301;DHT22;45073;52.740;6.784;2023-08-08T08:18:28;17.60;99.90
59301;DHT22;45073;52.740;6.784;2023-08-08T08:20:54;17.70;99.90
59301;DHT22;45073;52.740;6.784;2023-08-08T08:23:23;17.60;99.90
59301;DHT22;45073;52.740;6.784;2023-08-08T08:25:49;17.50;99.90
59301;DHT22;45073;52.740;6.784;2023-08-08T08:28:16;17.40;99.90
59301;DHT22;45073;52.740;6.784;2023-08-08T08:30:41;17.40;99.90
59301;DHT22;45073;52.740;6.784;2023-08-08T08:33:07;17.30;99.90
59301;DHT22;45073;52.740;6.784;2023-08-08T08:35:34;17.20;99.90
59301;DHT22;45073;52.740;6.784;2023-08-08T08:38:00;17.20;99.90
59301;DHT22;45073;52.740;6.784;2023-08-08T08:40:27;17.20;99.90
59301;DHT22;45073;52.740;6.784;2023-08-08T08:42:53;17.30;99.90
59301;DHT22;45073;52.740;6.784;2023-08-08T08:45:20;17.30;99.90
59301;DHT22;45073;52.740;6.784;2023-08-08T08:47:47;17.30;99.90
59301;DHT22;45073;52.740;6.784;2023-08-08T08:50:15;17.40;99.90
59301;DHT22;45073;52.740;6.784;2023-08-08T08:52:42;17.50;99.90
59301;DHT22;45073;52.740;6.784;2023-08-08T08:55:08;17.60;99.90
59301;DHT22;45073;52.740;6.784;2023-08-08T08:57:35;17.60;99.90
59301;DHT22;45073;52.740;6.784;2023-08-08T09:00:01;17.50;99.90
59301;DHT22;45073;52.740;6.784;2023-08-08T09:02:26;17.50;99.90
59301;DHT22;45073;52.740;6.784;2023-08-08T09:04:52;17.50;99.90
59301;DHT22;45073;52.740;6.784;2023-08-08T09:07:20;17.60;99.90
59301;DHT22;45073;52.740;6.784;2023-08-08T09:09:48;17.60;99.90
59301;DHT22;45073;52.740;6.784;2023-08-08T09:12:14;17.70;99.90
59301;DHT22;45073;52.740;6.784;2023-08-08T09:14:44;17.70;99.90
59301;DHT22;45073;52.740;6.784;2023-08-08T09:17:11;17.70;99.90
59301;DHT22;45073;52.740;6.784;2023-08-08T09:19:44;17.70;99.90
59301;DHT22;45073;52.740;6.784;2023-08-08T09:22:14;17.90;99.90
59301;DHT22;45073;52.740;6.784;2023-08-08T09:24:40;17.90;99.90
59301;DHT22;45073;52.740;6.784;2023-08-08T09:27:09;18.00;99.90
59301;DHT22;45073;52.740;6.784;2023-08-08T09:29:36;18.00;99.90
59301;DHT22;45073;52.740;6.784;2023-08-08T09:32:06;17.90;99.90
59301;DHT22;45073;52.740;6.784;2023-08-08T09:34:32;17.90;99.90
59301;DHT22;45073;52.740;6.784;2023-08-08T09:36:58;18.00;99.90
59301;DHT22;45073;52.740;6.784;2023-08-08T09:39:25;18.10;99.90
59301;DHT22;45073;52.740;6.784;2023-08-08T09:41:51;18.10;99.90
59301;DHT22;45073;52.740;6.784;2023-08-08T09:44:17;18.10;99.90
59301;DHT22;45073;52.740;6.784;2023-08-08T09:46:43;18.00;99.90
59301;DHT22;45073;52.740;6.784;2023-08-08T09:49:10;17.80;99.90
59301;DHT22;45073;52.740;6.784;2023-08-08T09:51:36;17.60;99.90
59301;DHT22;45073;52.740;6.784;2023-08-08T09:54:04;17.60;99.90
59301;DHT22;45073;52.740;6.784;2023-08-08T09:56:30;17.60;99.90
59301;DHT22;45073;52.740;6.784;2023-08-08T09:58:57;17.60;99.90
59301;DHT22;45073;52.740;6.784;2023-08-08T10:01:25;17.70;99.90
59301;DHT22;45073;52.740;6.784;2023-08-08T10:03:51;17.80;99.90
59301;DHT22;45073;52.740;6.784;2023-08-08T10:06:18;17.90;99.90
59301;DHT22;45073;52.740;6.784;2023-08-08T10:08:45;18.00;99.90
59301;DHT22;45073;52.740;6.784;2023-08-08T10:11:11;18.00;99.90
59301;DHT22;45073;52.740;6.784;2023-08-08T10:13:37;17.90;99.90
59301;DHT22;45073;52.740;6.784;2023-08-08T10:16:07;17.70;99.90
59301;DHT22;45073;52.740;6.784;2023-08-08T10:18:34;17.20;99.90
59301;DHT22;45073;52.740;6.784;2023-08-08T10:20:59;16.90;99.90
59301;DHT22;45073;52.740;6.784;2023-08-08T10:23:25;16.70;99.90
59301;DHT22;45073;52.740;6.784;2023-08-08T10:25:52;16.70;99.90
59301;DHT22;45073;52.740;6.784;2023-08-08T10:28:21;16.80;99.90
59301;DHT22;45073;52.740;6.784;2023-08-08T10:30:58;17.00;99.90
59301;DHT22;45073;52.740;6.784;2023-08-08T10:33:42;17.20;99.90
59301;DHT22;45073;52.740;6.784;2023-08-08T10:36:09;17.40;99.90
59301;DHT22;45073;52.740;6.784;2023-08-08T10:38:48;17.60;99.90
59301;DHT22;45073;52.740;6.784;2023-08-08T10:41:26;17.90;99.90
59301;DHT22;45073;52.740;6.784;2023-08-08T10:43:54;17.80;99.90
59301;DHT22;45073;52.740;6.784;2023-08-08T10:46:26;17.90;99.90
59301;DHT22;45073;52.740;6.784;2023-08-08T10:49:02;17.90;99.90
59301;DHT22;45073;52.740;6.784;2023-08-08T10:54:06;17.80;99.90
59301;DHT22;45073;52.740;6.784;2023-08-08T10:56:35;17.60;99.90
59301;DHT22;45073;52.740;6.784;2023-08-08T10:59:15;17.40;99.90
59301;DHT22;45073;52.740;6.784;2023-08-08T11:01:42;17.20;99.90
59301;DHT22;45073;52.740;6.784;2023-08-08T11:04:19;17.20;99.90
59301;DHT22;45073;52.740;6.784;2023-08-08T11:06:45;17.20;99.90
59301;DHT22;45073;52.740;6.784;2023-08-08T11:09:22;17.00;99.90
59301;DHT22;45073;52.740;6.784;2023-08-08T11:11:48;17.20;99.90
59301;DHT22;45073;52.740;6.784;2023-08-08T11:14:19;17.30;99.90
59301;DHT22;45073;52.740;6.784;2023-08-08T11:16:46;17.40;99.90
59301;DHT22;45073;52.740;6.784;2023-08-08T11:19:12;17.40;99.90
59301;DHT22;45073;52.740;6.784;2023-08-08T11:21:41;17.50;99.90
59301;DHT22;45073;52.740;6.784;2023-08-08T11:24:07;17.50;99.90
59301;DHT22;45073;52.740;6.784;2023-08-08T11:26:34;17.60;99.90
59301;DHT22;45073;52.740;6.784;2023-08-08T11:29:02;17.80;99.90
59301;DHT22;45073;52.740;6.784;2023-08-08T11:31:29;17.90;99.90
59301;DHT22;45073;52.740;6.784;2023-08-08T11:33:55;18.00;99.90
59301;DHT22;45073;52.740;6.784;2023-08-08T11:36:22;18.10;99.90
59301;DHT22;45073;52.740;6.784;2023-08-08T11:38:50;18.10;99.90
59301;DHT22;45073;52.740;6.784;2023-08-08T11:41:17;18.10;99.90
59301;DHT22;45073;52.740;6.784;2023-08-08T11:43:45;18.30;99.90
59301;DHT22;45073;52.740;6.784;2023-08-08T11:46:15;18.30;99.90
59301;DHT22;45073;52.740;6.784;2023-08-08T11:48:41;18.40;99.90
59301;DHT22;45073;52.740;6.784;2023-08-08T11:51:08;18.50;99.90
59301;DHT22;45073;52.740;6.784;2023-08-08T11:53:34;18.70;99.90
59301;DHT22;45073;52.740;6.784;2023-08-08T11:56:01;18.80;99.90
59301;DHT22;45073;52.740;6.784;2023-08-08T11:58:29;18.80;99.90
59301;DHT22;45073;52.740;6.784;2023-08-08T12:00:56;18.50;99.90
59301;DHT22;45073;52.740;6.784;2023-08-08T12:03:24;17.90;99.90
59301;DHT22;45073;52.740;6.784;2023-08-08T12:05:51;17.50;99.90
59301;DHT22;45073;52.740;6.784;2023-08-08T12:08:20;17.10;99.90
59301;DHT22;45073;52.740;6.784;2023-08-08T12:10:52;17.10;99.90
59301;DHT22;45073;52.740;6.784;2023-08-08T12:13:23;17.30;99.90
59301;DHT22;45073;52.740;6.784;2023-08-08T12:15:53;17.50;99.90
59301;DHT22;45073;52.740;6.784;2023-08-08T12:18:19;17.60;99.90
59301;DHT22;45073;52.740;6.784;2023-08-08T12:20:45;17.80;99.90
59301;DHT22;45073;52.740;6.784;2023-08-08T12:23:12;18.00;99.90
59301;DHT22;45073;52.740;6.784;2023-08-08T12:25:38;18.20;99.90
59301;DHT22;45073;52.740;6.784;2023-08-08T12:28:04;18.50;99.90
59301;DHT22;45073;52.740;6.784;2023-08-08T12:30:31;18.70;99.90
59301;DHT22;45073;52.740;6.784;2023-08-08T12:32:57;18.60;99.90
59301;DHT22;45073;52.740;6.784;2023-08-08T12:35:22;18.60;99.90
59301;DHT22;45073;52.740;6.784;2023-08-08T12:37:48;18.60;99.90
59301;DHT22;45073;52.740;6.784;2023-08-08T12:40:14;18.50;99.90
59301;DHT22;45073;52.740;6.784;2023-08-08T12:42:39;18.60;99.90
59301;DHT22;45073;52.740;6.784;2023-08-08T12:45:06;18.80;99.90
59301;DHT22;45073;52.740;6.784;2023-08-08T12:47:32;18.90;99.90
59301;DHT22;45073;52.740;6.784;2023-08-08T12:49:57;19.00;99.90
59301;DHT22;45073;52.740;6.784;2023-08-08T12:52:23;18.90;99.90
59301;DHT22;45073;52.740;6.784;2023-08-08T12:54:49;18.70;99.90
59301;DHT22;45073;52.740;6.784;2023-08-08T12:57:14;18.40;99.90
59301;DHT22;45073;52.740;6.784;2023-08-08T12:59:40;18.20;99.90
59301;DHT22;45073;52.740;6.784;2023-08-08T13:02:07;18.00;99.90
59301;DHT22;45073;52.740;6.784;2023-08-08T13:04:33;17.90;99.90
59301;DHT22;45073;52.740;6.784;2023-08-08T13:06:58;17.70;99.90
59301;DHT22;45073;52.740;6.784;2023-08-08T13:09:24;17.60;99.90
59301;DHT22;45073;52.740;6.784;2023-08-08T13:11:50;17.50;99.90
59301;DHT22;45073;52.740;6.784;2023-08-08T13:14:15;17.40;99.90
59301;DHT22;45073;52.740;6.784;2023-08-08T13:16:41;17.40;99.90
59301;DHT22;45073;52.740;6.784;2023-08-08T13:19:07;17.50;99.90
59301;DHT22;45073;52.740;6.784;2023-08-08T13:21:33;17.90;99.90
59301;DHT22;45073;52.740;6.784;2023-08-08T13:23:58;18.20;99.90
59301;DHT22;45073;52.740;6.784;2023-08-08T13:26:24;18.30;99.90
59301;DHT22;45073;52.740;6.784;2023-08-08T13:28:50;18.30;99.90
59301;DHT22;45073;52.740;6.784;2023-08-08T13:31:32;18.20;99.90
59301;DHT22;45073;52.740;6.784;2023-08-08T13:34:28;18.00;99.90
59301;DHT22;45073;52.740;6.784;2023-08-08T13:36:53;18.00;99.90
59301;DHT22;45073;52.740;6.784;2023-08-08T13:39:20;17.90;99.90
59301;DHT22;45073;52.740;6.784;2023-08-08T13:41:46;17.90;99.90
59301;DHT22;45073;52.740;6.784;2023-08-08T13:44:11;18.00;99.90
59301;DHT22;45073;52.740;6.784;2023-08-08T13:46:37;18.00;99.90
59301;DHT22;45073;52.740;6.784;2023-08-08T13:49:02;18.10;99.90
59301;DHT22;45073;52.740;6.784;2023-08-08T13:51:28;18.20;99.90
59301;DHT22;45073;52.740;6.784;2023-08-08T13:53:54;18.30;99.90
59301;DHT22;45073;52.740;6.784;2023-08-08T13:56:19;18.30;99.90
59301;DHT22;45073;52.740;6.784;2023-08-08T13:58:46;18.30;99.90
59301;DHT22;45073;52.740;6.784;2023-08-08T14:01:11;18.10;99.90
59301;DHT22;45073;52.740;6.784;2023-08-08T14:03:37;18.00;99.90
59301;DHT22;45073;52.740;6.784;2023-08-08T14:06:02;18.00;99.90
59301;DHT22;45073;52.740;6.784;2023-08-08T14:08:28;18.30;99.90
59301;DHT22;45073;52.740;6.784;2023-08-08T14:10:54;18.30;99.90
59301;DHT22;45073;52.740;6.784;2023-08-08T14:13:19;18.30;99.90
59301;DHT22;45073;52.740;6.784;2023-08-08T14:15:47;18.20;99.90
59301;DHT22;45073;52.740;6.784;2023-08-08T14:18:13;18.10;99.90
59301;DHT22;45073;52.740;6.784;2023-08-08T14:20:39;18.10;99.90
59301;DHT22;45073;52.740;6.784;2023-08-08T14:23:04;18.00;99.90
59301;DHT22;45073;52.740;6.784;2023-08-08T14:25:31;18.10;99.90
59301;DHT22;45073;52.740;6.784;2023-08-08T14:27:56;18.30;99.90
59301;DHT22;45073;52.740;6.784;2023-08-08T14:30:22;18.50;99.90
59301;DHT22;45073;52.740;6.784;2023-08-08T14:32:51;18.40;99.90
59301;DHT22;45073;52.740;6.784;2023-08-08T14:35:17;18.30;99.90
59301;DHT22;45073;52.740;6.784;2023-08-08T14:37:42;18.20;99.90
59301;DHT22;45073;52.740;6.784;2023-08-08T14:40:08;18.20;99.90
59301;DHT22;45073;52.740;6.784;2023-08-08T14:42:34;18.30;99.90
59301;DHT22;45073;52.740;6.784;2023-08-08T14:45:00;18.40;99.90
59301;DHT22;45073;52.740;6.784;2023-08-08T14:47:25;18.40;99.90
59301;DHT22;45073;52.740;6.784;2023-08-08T14:49:51;18.40;99.90
59301;DHT22;45073;52.740;6.784;2023-08-08T14:52:16;18.60;99.90
59301;DHT22;45073;52.740;6.784;2023-08-08T14:54:42;18.70;99.90
59301;DHT22;45073;52.740;6.784;2023-08-08T14:57:08;18.60;99.90
59301;DHT22;45073;52.740;6.784;2023-08-08T14:59:34;18.50;99.90
59301;DHT22;45073;52.740;6.784;2023-08-08T15:02:00;18.30;99.90
59301;DHT22;45073;52.740;6.784;2023-08-08T15:04:25;18.00;99.90
59301;DHT22;45073;52.740;6.784;2023-08-08T15:06:51;17.60;99.90
59301;DHT22;45073;52.740;6.784;2023-08-08T15:09:16;17.40;99.90
59301;DHT22;45073;52.740;6.784;2023-08-08T15:11:42;17.30;99.90
59301;DHT22;45073;52.740;6.784;2023-08-08T15:14:08;17.40;99.90
59301;DHT22;45073;52.740;6.784;2023-08-08T15:16:34;17.70;99.90
59301;DHT22;45073;52.740;6.784;2023-08-08T15:18:59;17.90;99.90
59301;DHT22;45073;52.740;6.784;2023-08-08T15:21:25;18.10;99.90
59301;DHT22;45073;52.740;6.784;2023-08-08T15:23:50;18.20;99.90
59301;DHT22;45073;52.740;6.784;2023-08-08T15:26:16;18.40;99.90
59301;DHT22;45073;52.740;6.784;2023-08-08T15:28:44;18.60;99.90
59301;DHT22;45073;52.740;6.784;2023-08-08T15:31:10;18.70;99.90
59301;DHT22;45073;52.740;6.784;2023-08-08T15:33:36;18.80;99.90